Time;durP1;ratioP1;P1;durP2;ratioP2;P2;SDS_P1;SDS_P2;PMS_P1;PMS_P2;Temp;Humidity;BMP_temperature;BMP_pressure;BME280_temperature;BME280_humidity;BME280_pressure;Samples;Min_cycle;Max_cycle;Signal;HPM_P1;HPM_P2
2023/07/06 00:01:56;;;;;;;4.97;3.00;;;;;;;17.31;100.00;97487.94;5090293;28;20501;-66
2023/07/06 00:04:23;;;;;;;3.47;2.85;;;;;;;17.31;100.00;97482.56;5090010;28;20414;-66
2023/07/06 00:06:50;;;;;;;4.05;2.70;;;;;;;17.33;100.00;97485.75;5090341;28;20455;-66
2023/07/06 00:09:16;;;;;;;3.80;3.00;;;;;;;17.34;100.00;97480.13;5090304;28;20903;-66
2023/07/06 00:11:44;;;;;;;3.83;2.90;;;;;;;17.35;100.00;97481.72;5090091;28;20948;-66
2023/07/06 00:14:11;;;;;;;6.68;2.80;;;;;;;17.32;100.00;97478.81;5089940;28;20404;-66
2023/07/06 00:16:41;;;;;;;3.95;2.72;;;;;;;17.29;100.00;97482.09;5090042;28;20907;-66
2023/07/06 00:19:08;;;;;;;3.72;2.70;;;;;;;17.25;100.00;97481.88;5071893;28;20899;-66
2023/07/06 00:21:35;;;;;;;5.57;2.70;;;;;;;17.21;100.00;97480.88;5090025;28;20405;-66
2023/07/06 00:24:02;;;;;;;3.90;2.92;;;;;;;17.17;100.00;97482.53;5089534;28;20463;-66
2023/07/06 00:26:28;;;;;;;3.07;2.53;;;;;;;17.13;100.00;97491.44;5071201;22;20444;-70
2023/07/06 00:28:55;;;;;;;5.13;2.90;;;;;;;17.10;100.00;97497.34;5051969;28;20434;-69
2023/07/06 00:31:32;;;;;;;4.03;2.83;;;;;;;17.05;100.00;97487.53;5070723;28;20404;-69
2023/07/06 00:34:03;;;;;;;5.13;2.70;;;;;;;17.01;100.00;97492.66;5073238;28;20415;-69
2023/07/06 00:36:30;;;;;;;4.63;3.10;;;;;;;17.00;100.00;97490.25;5073523;28;20457;-69
2023/07/06 00:38:58;;;;;;;5.60;3.08;;;;;;;17.01;100.00;97497.19;5073278;28;20399;-69
2023/07/06 00:41:24;;;;;;;5.40;3.03;;;;;;;16.98;100.00;97487.91;5073203;28;20399;-69
2023/07/06 00:43:52;;;;;;;4.83;3.20;;;;;;;16.98;100.00;97490.56;5055179;28;20411;-70
2023/07/06 00:46:20;;;;;;;4.28;2.92;;;;;;;16.95;100.00;97488.47;5073201;28;20403;-69
2023/07/06 00:48:48;;;;;;;6.57;3.42;;;;;;;16.94;100.00;97491.41;5073211;28;20395;-69
2023/07/06 00:51:17;;;;;;;3.55;2.70;;;;;;;16.92;100.00;97496.25;5073173;28;20472;-69
2023/07/06 00:53:48;;;;;;;5.45;3.10;;;;;;;16.89;100.00;97494.97;5072886;28;20884;-69
2023/07/06 00:56:19;;;;;;;5.77;3.20;;;;;;;16.85;100.00;97488.59;5073074;28;20435;-69
2023/07/06 00:58:48;;;;;;;5.30;3.03;;;;;;;16.83;100.00;97487.31;5072958;28;20465;-69
2023/07/06 01:01:21;;;;;;;5.43;3.20;;;;;;;16.79;100.00;97492.44;5072922;28;20435;-69
2023/07/06 01:03:52;;;;;;;5.00;3.20;;;;;;;16.74;100.00;97484.50;5072761;28;20939;-69
2023/07/06 01:06:24;;;;;;;4.70;3.22;;;;;;;16.71;100.00;97492.28;5072791;28;20772;-69
2023/07/06 01:08:52;;;;;;;4.35;3.35;;;;;;;16.68;100.00;97492.88;5072848;28;20403;-69
2023/07/06 01:11:20;;;;;;;3.38;3.08;;;;;;;16.67;100.00;97492.06;5072892;28;20457;-69
2023/07/06 01:13:48;;;;;;;3.83;2.90;;;;;;;16.64;100.00;97493.44;5072559;28;20404;-69
2023/07/06 01:16:23;;;;;;;5.47;3.45;;;;;;;16.63;100.00;97486.50;5072657;28;20475;-69
2023/07/06 01:18:58;;;;;;;4.10;3.30;;;;;;;16.62;100.00;97478.75;5054732;28;20927;-69
2023/07/06 01:21:31;;;;;;;3.85;3.15;;;;;;;16.58;100.00;97481.19;5072492;28;20487;-69
2023/07/06 01:24:33;;;;;;;4.95;3.25;;;;;;;16.57;100.00;97478.78;5072341;28;20400;-69
2023/07/06 01:27:26;;;;;;;5.23;3.23;;;;;;;16.54;100.00;97479.34;5072367;28;20457;-69
2023/07/06 01:30:42;;;;;;;4.57;3.20;;;;;;;16.49;100.00;97482.09;5071915;28;20407;-69
2023/07/06 01:33:14;;;;;;;3.30;3.00;;;;;;;16.45;100.00;97473.06;5072023;28;20395;-70
2023/07/06 01:35:47;;;;;;;5.55;3.30;;;;;;;16.41;100.00;97474.72;5072383;28;20869;-70
2023/07/06 01:38:13;;;;;;;7.53;3.47;;;;;;;16.36;100.00;97467.56;5072285;28;20483;-69
2023/07/06 01:40:41;;;;;;;4.30;3.30;;;;;;;16.29;100.00;97464.44;5072218;28;20462;-69
2023/07/06 01:43:09;;;;;;;4.40;3.25;;;;;;;16.26;100.00;97460.47;5071878;28;20450;-69
2023/07/06 01:45:36;;;;;;;6.95;3.70;;;;;;;16.21;100.00;97457.06;5072043;28;20507;-69
2023/07/06 01:48:05;;;;;;;5.55;3.10;;;;;;;16.15;100.00;97459.00;5072075;28;20871;-69
2023/07/06 01:50:40;;;;;;;4.28;3.00;;;;;;;16.07;100.00;97461.50;5071944;28;20403;-70
2023/07/06 01:53:12;;;;;;;6.07;3.35;;;;;;;16.00;100.00;97463.72;5071663;28;20761;-70
2023/07/06 01:55:43;;;;;;;9.93;3.80;;;;;;;15.94;100.00;97462.19;5071983;28;20400;-70
2023/07/06 01:58:17;;;;;;;6.90;3.60;;;;;;;15.87;100.00;97470.50;5071973;28;20404;-70
2023/07/06 02:00:48;;;;;;;4.28;3.20;;;;;;;15.82;100.00;97470.56;5071834;28;20400;-69
2023/07/06 02:03:16;;;;;;;5.53;3.47;;;;;;;15.79;100.00;97468.44;5071527;28;20812;-69
2023/07/06 02:05:44;;;;;;;5.22;3.50;;;;;;;15.77;100.00;97468.75;5071686;28;20469;-69
2023/07/06 02:08:11;;;;;;;3.65;3.13;;;;;;;15.74;100.00;97466.63;5071592;28;20404;-69
2023/07/06 02:10:38;;;;;;;4.20;3.53;;;;;;;15.70;100.00;97465.63;5071605;28;21021;-69
2023/07/06 02:13:04;;;;;;;5.25;3.50;;;;;;;15.67;100.00;97466.19;5053382;28;20450;-69
2023/07/06 02:15:31;;;;;;;5.15;3.28;;;;;;;15.63;100.00;97469.69;5071445;28;20746;-69
2023/07/06 02:17:57;;;;;;;4.47;3.30;;;;;;;15.57;100.00;97471.59;5071552;28;20465;-69
2023/07/06 02:20:24;;;;;;;5.10;3.30;;;;;;;15.52;100.00;97470.81;5071474;28;20395;-69
2023/07/06 02:22:51;;;;;;;3.72;3.22;;;;;;;15.46;100.00;97467.41;5071163;28;20396;-69
2023/07/06 02:25:18;;;;;;;5.70;3.83;;;;;;;15.41;100.00;97476.22;5071027;28;20465;-69
2023/07/06 02:27:44;;;;;;;5.83;4.00;;;;;;;15.37;100.00;97477.09;5071395;28;20414;-69
2023/07/06 02:30:11;;;;;;;4.60;3.80;;;;;;;15.34;100.00;97470.41;5071224;28;20486;-69
2023/07/06 02:32:39;;;;;;;5.10;3.72;;;;;;;15.34;100.00;97469.63;5070866;28;20411;-69
2023/07/06 02:35:06;;;;;;;5.68;3.85;;;;;;;15.32;100.00;97469.94;5071139;28;20438;-69
2023/07/06 02:37:32;;;;;;;4.78;3.80;;;;;;;15.31;100.00;97470.19;5071063;28;20498;-69
2023/07/06 02:40:00;;;;;;;4.93;3.50;;;;;;;15.31;100.00;97473.66;5071028;28;20483;-69
2023/07/06 02:42:27;;;;;;;4.60;3.55;;;;;;;15.29;100.00;97467.00;5070805;28;20399;-69
2023/07/06 02:44:53;;;;;;;4.93;3.75;;;;;;;15.29;100.00;97475.00;5070868;28;20423;-69
2023/07/06 02:47:21;;;;;;;5.13;4.07;;;;;;;15.26;100.00;97467.59;5070963;28;20415;-69
2023/07/06 02:49:48;;;;;;;5.50;4.03;;;;;;;15.26;100.00;97468.34;5071013;28;20739;-69
2023/07/06 02:52:14;;;;;;;5.18;3.90;;;;;;;15.25;100.00;97469.44;5070713;28;20901;-69
2023/07/06 02:54:40;;;;;;;5.65;4.07;;;;;;;15.22;100.00;97467.31;5052278;28;20408;-69
2023/07/06 02:57:08;;;;;;;10.00;4.50;;;;;;;15.19;100.00;97469.75;5070884;28;20399;-69
2023/07/06 02:59:34;;;;;;;6.68;4.10;;;;;;;15.17;100.00;97470.03;5070632;28;20753;-69
2023/07/06 03:02:01;;;;;;;6.68;4.50;;;;;;;15.17;100.00;97469.25;5070639;28;20400;-69
2023/07/06 03:04:28;;;;;;;5.38;3.80;;;;;;;15.16;100.00;97465.78;5070521;28;20412;-69
2023/07/06 03:06:55;;;;;;;6.88;4.60;;;;;;;15.14;100.00;97459.91;5070655;28;20404;-69
2023/07/06 03:09:23;;;;;;;5.57;4.07;;;;;;;15.14;100.00;97462.59;5070642;28;20453;-69
2023/07/06 03:11:49;;;;;;;5.15;3.80;;;;;;;15.11;100.00;97457.78;5070460;28;20396;-69
2023/07/06 03:14:17;;;;;;;5.95;3.88;;;;;;;15.09;100.00;97458.09;5070342;28;20439;-69
2023/07/06 03:16:43;;;;;;;6.32;4.28;;;;;;;15.05;100.00;97459.72;5070626;28;20411;-69
2023/07/06 03:19:11;;;;;;;6.95;4.10;;;;;;;15.02;100.00;97462.16;5070544;28;20403;-69
2023/07/06 03:21:40;;;;;;;5.18;3.92;;;;;;;14.99;100.00;97462.69;5070318;28;20430;-69
2023/07/06 03:24:07;;;;;;;6.57;4.28;;;;;;;14.95;100.00;97457.13;5070324;28;20404;-69
2023/07/06 03:26:36;;;;;;;8.20;4.75;;;;;;;14.92;100.00;97459.53;5070237;28;20411;-69
2023/07/06 03:29:04;;;;;;;7.25;4.90;;;;;;;14.90;100.00;97456.34;5070445;28;20900;-69
2023/07/06 03:31:33;;;;;;;6.77;4.30;;;;;;;14.89;100.00;97463.56;5070277;28;20408;-69
2023/07/06 03:34:00;;;;;;;8.20;4.75;;;;;;;14.89;100.00;97454.75;5070274;28;20457;-69
2023/07/06 03:36:26;;;;;;;6.07;4.10;;;;;;;14.86;100.00;97460.66;5070594;28;20808;-69
2023/07/06 03:38:52;;;;;;;5.60;4.13;;;;;;;14.84;100.00;97458.25;5070370;28;20749;-69
2023/07/06 03:41:19;;;;;;;6.30;4.18;;;;;;;14.81;100.00;97458.81;5070296;28;20424;-69
2023/07/06 03:43:46;;;;;;;6.03;4.28;;;;;;;14.80;100.00;97456.44;5070073;28;20396;-69
2023/07/06 03:46:12;;;;;;;6.18;3.92;;;;;;;14.79;100.00;97458.31;5070321;28;20502;-69
2023/07/06 03:48:44;;;;;;;5.38;4.18;;;;;;;14.75;100.00;97454.59;5070078;28;20403;-69
2023/07/06 03:51:13;;;;;;;5.23;4.30;;;;;;;14.73;100.00;97453.28;5052142;28;20403;-69
2023/07/06 03:53:39;;;;;;;5.70;4.18;;;;;;;14.72;100.00;97452.47;5070348;28;20478;-69
2023/07/06 03:56:07;;;;;;;4.65;3.50;;;;;;;14.71;100.00;97464.22;5070353;28;20400;-69
2023/07/06 03:58:33;;;;;;;4.63;3.70;;;;;;;14.69;100.00;97458.34;5070267;28;20404;-69
2023/07/06 04:00:59;;;;;;;5.85;3.80;;;;;;;14.67;100.00;97455.97;5070476;28;20443;-69
2023/07/06 04:03:32;;;;;;;4.88;4.07;;;;;;;14.65;100.00;97452.78;5070157;28;20468;-69
2023/07/06 04:06:03;;;;;;;5.85;4.07;;;;;;;14.62;100.00;97453.34;5070724;28;20420;-69
2023/07/06 04:08:30;;;;;;;8.07;4.82;;;;;;;14.60;100.00;97452.81;5074450;28;20407;-69
2023/07/06 04:10:56;;;;;;;5.63;4.10;;;;;;;14.59;100.00;97451.19;5074440;28;20434;-69
2023/07/06 04:13:22;;;;;;;5.17;3.87;;;;;;;14.60;100.00;97462.66;5073973;28;20490;-69
2023/07/06 04:15:52;;;;;;;5.82;4.20;;;;;;;14.61;100.00;97461.59;5074042;28;20453;-69
2023/07/06 04:18:18;;;;;;;5.50;4.22;;;;;;;14.63;100.00;97467.44;5074147;28;20431;-69
2023/07/06 04:20:44;;;;;;;5.30;4.05;;;;;;;14.65;100.00;97460.78;5073919;28;20892;-69
2023/07/06 04:23:12;;;;;;;5.50;3.88;;;;;;;14.67;100.00;97468.47;5073928;28;20831;-69
2023/07/06 04:25:38;;;;;;;5.22;3.90;;;;;;;14.69;100.00;97475.13;5073693;28;20411;-69
2023/07/06 04:28:07;;;;;;;5.10;4.03;;;;;;;14.72;100.00;97471.13;5073952;28;20429;-69
2023/07/06 04:30:35;;;;;;;5.27;4.00;;;;;;;14.73;100.00;97472.72;5073908;28;20495;-69
2023/07/06 04:33:03;;;;;;;4.10;3.60;;;;;;;14.76;100.00;97477.50;5073480;28;20466;-69
2023/07/06 04:35:31;;;;;;;5.18;3.92;;;;;;;14.79;100.00;97476.16;5073476;28;20952;-69
2023/07/06 04:37:59;;;;;;;6.03;3.90;;;;;;;14.81;100.00;97472.13;5073440;28;20404;-69
2023/07/06 04:40:27;;;;;;;4.25;3.75;;;;;;;14.84;100.00;97473.44;5073164;28;20396;-69
2023/07/06 04:42:54;;;;;;;7.20;4.00;;;;;;;14.87;100.00;97471.06;5073074;28;20395;-69
2023/07/06 04:45:22;;;;;;;5.47;3.92;;;;;;;14.90;100.00;97469.69;5073080;28;20743;-69
2023/07/06 04:47:51;;;;;;;4.50;3.90;;;;;;;14.94;100.00;97471.53;5073223;28;20408;-69
2023/07/06 04:50:22;;;;;;;6.55;4.40;;;;;;;15.02;100.00;97478.94;5073136;28;20434;-69
2023/07/06 04:52:53;;;;;;;5.82;3.83;;;;;;;15.10;100.00;97480.22;5072829;28;20487;-69
2023/07/06 04:55:22;;;;;;;4.60;4.03;;;;;;;15.17;100.00;97485.25;5073020;28;20457;-69
2023/07/06 04:57:52;;;;;;;4.00;3.53;;;;;;;15.25;100.00;97477.44;5071652;28;20761;-69
2023/07/06 05:00:24;;;;;;;4.93;3.67;;;;;;;15.35;100.00;97484.56;5072907;28;20400;-69
2023/07/06 05:02:51;;;;;;;4.38;3.58;;;;;;;15.44;100.00;97489.03;5070849;28;20404;-69
2023/07/06 05:05:18;;;;;;;3.38;3.05;;;;;;;15.53;100.00;97491.09;5072648;28;20434;-70
2023/07/06 05:07:48;;;;;;;4.15;3.35;;;;;;;15.61;100.00;97494.00;5073206;28;20410;-69
2023/07/06 05:10:15;;;;;;;3.90;3.20;;;;;;;15.71;100.00;97493.88;5073031;28;20400;-69
2023/07/06 05:12:41;;;;;;;3.83;3.20;;;;;;;15.82;100.00;97491.91;5072399;28;20403;-69
2023/07/06 05:15:10;;;;;;;3.58;3.15;;;;;;;15.92;100.00;97499.84;5072696;28;20794;-69
2023/07/06 05:17:38;;;;;;;4.27;3.10;;;;;;;16.01;100.00;97500.81;5072467;28;20463;-69
2023/07/06 05:20:06;;;;;;;3.83;2.92;;;;;;;16.10;100.00;97496.44;5072009;28;20408;-69
2023/07/06 05:22:38;;;;;;;3.78;3.08;;;;;;;16.18;100.00;97497.69;5068234;28;20404;-69
2023/07/06 05:25:05;;;;;;;3.50;2.90;;;;;;;16.24;100.00;97501.88;5058593;28;20416;-69
2023/07/06 05:27:32;;;;;;;3.90;3.20;;;;;;;16.27;100.00;97502.13;5046971;28;20862;-69
2023/07/06 05:29:58;;;;;;;3.70;3.00;;;;;;;16.33;100.00;97502.84;5072481;28;20392;-69
2023/07/06 05:32:26;;;;;;;4.55;3.10;;;;;;;16.37;100.00;97501.22;5072357;28;20400;-69
2023/07/06 05:34:52;;;;;;;3.13;2.83;;;;;;;16.41;100.00;97504.09;5072165;28;20801;-69
2023/07/06 05:37:18;;;;;;;3.47;3.05;;;;;;;16.42;100.00;97503.81;5072339;28;20506;-69
2023/07/06 05:39:44;;;;;;;6.43;3.20;;;;;;;16.45;100.00;97510.50;5072255;28;20462;-69
2023/07/06 05:42:11;;;;;;;3.85;3.10;;;;;;;16.48;100.00;97508.03;5072112;28;20404;-69
2023/07/06 05:44:37;;;;;;;4.45;3.40;;;;;;;16.53;100.00;97513.31;5072027;28;20400;-69
2023/07/06 05:47:04;;;;;;;4.07;3.38;;;;;;;16.59;100.00;97516.72;5072154;28;20411;-69
2023/07/06 05:49:32;;;;;;;3.80;3.20;;;;;;;16.64;100.00;97517.47;5054287;28;20931;-69
2023/07/06 05:51:58;;;;;;;3.88;3.20;;;;;;;16.70;100.00;97528.91;5071773;28;20488;-69
2023/07/06 05:54:24;;;;;;;3.50;2.88;;;;;;;16.74;100.00;97521.13;5071568;28;20408;-69
2023/07/06 05:56:51;;;;;;;3.60;3.03;;;;;;;16.77;100.00;97531.22;5071862;28;20807;-69
2023/07/06 05:59:19;;;;;;;3.57;2.80;;;;;;;16.79;100.00;97532.53;5072139;28;20400;-68
2023/07/06 06:01:46;;;;;;;3.80;3.22;;;;;;;16.82;100.00;97531.16;5071972;28;20475;-68
2023/07/06 06:04:12;;;;;;;3.83;3.00;;;;;;;16.84;100.00;97539.72;5071727;28;20760;-70
2023/07/06 06:06:48;;;;;;;4.03;3.37;;;;;;;16.83;100.00;97541.59;5070031;28;20505;-70
2023/07/06 06:09:14;;;;;;;3.55;3.13;;;;;;;16.86;100.00;97540.19;5071725;28;20400;-70
2023/07/06 06:11:41;;;;;;;3.75;3.10;;;;;;;16.88;100.00;97546.06;5071559;28;20427;-70
2023/07/06 06:14:07;;;;;;;4.13;3.57;;;;;;;16.92;100.00;97545.19;5071562;28;20407;-70
2023/07/06 06:16:33;;;;;;;4.10;3.15;;;;;;;16.95;100.00;97546.50;5054141;28;20503;-70
2023/07/06 06:19:01;;;;;;;4.00;3.20;;;;;;;16.97;100.00;97544.34;5071525;28;20437;-70
2023/07/06 06:21:27;;;;;;;4.60;3.03;;;;;;;16.99;100.00;97547.50;5071476;28;20747;-70
2023/07/06 06:23:55;;;;;;;3.30;2.72;;;;;;;17.01;100.00;97548.00;5071245;28;20449;-70
2023/07/06 06:26:21;;;;;;;4.20;3.20;;;;;;;17.05;100.00;97549.03;5071192;28;20419;-70
2023/07/06 06:28:47;;;;;;;4.32;2.85;;;;;;;17.08;100.00;97543.09;5070668;28;20403;-70
2023/07/06 06:31:14;;;;;;;4.82;3.00;;;;;;;17.12;100.00;97540.66;5071453;28;20403;-71
2023/07/06 06:33:40;;;;;;;3.30;3.00;;;;;;;17.16;100.00;97542.47;5071198;28;20396;-70
2023/07/06 06:36:09;;;;;;;3.53;2.75;;;;;;;17.20;100.00;97540.00;5067588;28;20471;-70
2023/07/06 06:38:37;;;;;;;3.50;2.70;;;;;;;17.23;100.00;97550.13;5064005;28;20758;-73
2023/07/06 06:43:53;;;;;;;2.95;2.42;;;;;;;17.29;100.00;97544.41;5115619;22;20856;-73
2023/07/06 06:46:19;;;;;;;2.90;2.42;;;;;;;17.34;100.00;97555.03;5110886;28;20464;-73
2023/07/06 06:48:45;;;;;;;2.97;2.60;;;;;;;17.39;100.00;97551.50;5095957;28;20498;-73
2023/07/06 06:51:12;;;;;;;3.03;2.35;;;;;;;17.42;100.00;97546.38;5112485;27;20450;-71
2023/07/06 06:53:39;;;;;;;3.22;2.20;;;;;;;17.48;100.00;97548.97;5087733;28;20400;-72
2023/07/06 06:56:06;;;;;;;2.83;2.40;;;;;;;17.50;100.00;97542.22;5085048;28;20410;-72
2023/07/06 06:58:33;;;;;;;3.20;2.57;;;;;;;17.54;100.00;97558.50;5089461;28;20398;-73
2023/07/06 07:01:03;;;;;;;2.70;2.17;;;;;;;17.56;100.00;97550.97;5089204;28;20768;-72
2023/07/06 07:03:30;;;;;;;3.03;2.50;;;;;;;17.55;100.00;97552.06;5107607;28;20401;-73
2023/07/06 07:06:01;;;;;;;3.60;2.72;;;;;;;17.59;100.00;97548.50;5110541;28;20439;-72
2023/07/06 07:08:27;;;;;;;4.68;2.80;;;;;;;17.61;100.00;97551.72;5110804;28;20488;-72
2023/07/06 07:10:55;;;;;;;4.18;3.05;;;;;;;17.63;100.00;97552.22;5093080;28;20464;-72
2023/07/06 07:13:22;;;;;;;4.07;2.85;;;;;;;17.65;100.00;97549.25;5090295;28;20398;-72
2023/07/06 07:15:49;;;;;;;5.47;2.57;;;;;;;17.66;100.00;97548.19;5082826;28;20490;-73
2023/07/06 07:18:16;;;;;;;2.92;2.30;;;;;;;17.69;100.00;97553.72;5070301;28;20410;-73
2023/07/06 07:20:43;;;;;;;3.35;2.35;;;;;;;17.72;100.00;97555.03;5081476;28;20485;-72
2023/07/06 07:23:10;;;;;;;4.00;2.50;;;;;;;17.75;100.00;97552.56;5088188;28;20405;-72
2023/07/06 07:25:38;;;;;;;4.47;2.70;;;;;;;17.77;100.00;97550.38;5088135;28;20417;-72
2023/07/06 07:28:05;;;;;;;3.38;2.83;;;;;;;17.82;100.00;97551.41;5086463;28;20418;-72
2023/07/06 07:30:33;;;;;;;3.85;2.80;;;;;;;17.84;100.00;97551.88;5087570;28;20402;-73
2023/07/06 07:32:59;;;;;;;6.88;2.90;;;;;;;17.83;100.00;97552.97;5086898;28;20427;-73
2023/07/06 07:35:27;;;;;;;4.28;2.90;;;;;;;17.84;100.00;97550.00;5089591;28;20421;-73
2023/07/06 07:37:53;;;;;;;6.75;2.92;;;;;;;17.85;100.00;97546.25;5088887;28;20397;-73
2023/07/06 07:40:20;;;;;;;3.65;2.53;;;;;;;17.88;100.00;97542.19;5082022;28;20503;-72
2023/07/06 07:42:49;;;;;;;2.47;2.25;;;;;;;17.92;100.00;97540.50;5073332;28;20765;-72
2023/07/06 07:45:18;;;;;;;2.27;2.00;;;;;;;17.97;100.00;97551.13;5089757;28;20498;-73
2023/07/06 07:47:44;;;;;;;1.95;1.45;;;;;;;18.02;100.00;97551.06;5084932;28;20414;-72
2023/07/06 07:50:10;;;;;;;2.10;1.80;;;;;;;18.06;100.00;97541.31;5093245;28;20402;-72
2023/07/06 07:52:38;;;;;;;3.00;1.70;;;;;;;18.11;100.00;97541.25;5092985;28;20398;-72
2023/07/06 07:55:06;;;;;;;2.23;1.90;;;;;;;18.15;100.00;97540.34;5085196;28;20402;-73
2023/07/06 07:57:33;;;;;;;1.85;1.63;;;;;;;18.22;100.00;97545.31;5090700;28;20410;-73
2023/07/06 07:59:59;;;;;;;3.35;2.10;;;;;;;18.27;100.00;97539.84;5090898;28;20421;-72
2023/07/06 08:02:25;;;;;;;4.68;2.83;;;;;;;18.26;100.00;97538.28;5092569;28;20427;-73
2023/07/06 08:04:52;;;;;;;4.28;2.90;;;;;;;18.29;100.00;97531.53;5086563;28;20417;-72
2023/07/06 08:07:18;;;;;;;3.97;2.42;;;;;;;18.38;100.00;97529.75;5087139;28;20509;-72
2023/07/06 08:09:46;;;;;;;6.65;2.95;;;;;;;18.40;100.00;97533.72;5088139;28;20398;-72
2023/07/06 08:12:12;;;;;;;7.30;3.20;;;;;;;18.34;100.00;97539.50;5092487;28;20410;-73
2023/07/06 08:14:43;;;;;;;3.20;2.30;;;;;;;18.47;100.00;97528.75;5093413;28;20433;-73
2023/07/06 08:17:10;;;;;;;4.05;2.15;;;;;;;18.57;100.00;97532.38;5093427;28;20498;-72
2023/07/06 08:19:37;;;;;;;6.10;3.05;;;;;;;18.70;100.00;97532.38;5093411;28;20472;-73
2023/07/06 08:22:03;;;;;;;4.38;2.63;;;;;;;18.76;100.00;97533.03;5093273;28;20463;-73
2023/07/06 08:24:29;;;;;;;2.90;2.22;;;;;;;18.88;100.00;97541.34;5084791;28;20835;-73
2023/07/06 08:26:58;;;;;;;3.22;2.40;;;;;;;19.04;100.00;97537.25;5093155;28;20409;-73
2023/07/06 08:29:26;;;;;;;4.68;2.67;;;;;;;19.15;100.00;97532.47;5093313;28;20469;-74
2023/07/06 08:31:52;;;;;;;3.42;2.33;;;;;;;19.28;100.00;97527.06;5092703;28;20460;-73
2023/07/06 08:34:18;;;;;;;3.80;2.20;;;;;;;19.43;100.00;97533.97;5092707;28;20394;-73
2023/07/06 08:36:45;;;;;;;5.57;2.60;;;;;;;19.54;100.00;97535.38;5093088;28;20390;-73
2023/07/06 08:39:12;;;;;;;4.07;2.40;;;;;;;19.66;100.00;97537.50;5092080;28;21230;-73
2023/07/06 08:41:41;;;;;;;4.40;2.58;;;;;;;19.84;100.00;97533.03;5090347;28;20410;-73
2023/07/06 08:44:13;;;;;;;3.50;2.50;;;;;;;19.98;100.00;97528.38;5085673;28;20886;-74
2023/07/06 08:46:45;;;;;;;5.05;2.83;;;;;;;20.12;100.00;97528.28;5083732;28;20505;-73
2023/07/06 08:49:20;;;;;;;6.05;3.30;;;;;;;20.12;100.00;97526.38;5092333;28;20451;-74
2023/07/06 08:51:48;;;;;;;8.70;3.00;;;;;;;20.18;100.00;97533.22;5091435;28;20790;-73
2023/07/06 08:54:19;;;;;;;3.60;2.22;;;;;;;20.25;100.00;97528.16;5091918;28;20409;-73
2023/07/06 08:56:47;;;;;;;5.15;2.53;;;;;;;20.35;100.00;97527.16;5091437;28;20409;-74
2023/07/06 08:59:26;;;;;;;6.32;2.40;;;;;;;20.39;100.00;97526.19;5092248;28;20421;-74
2023/07/06 09:01:53;;;;;;;2.60;1.90;;;;;;;20.54;100.00;97530.38;5091660;28;20401;-74
2023/07/06 09:04:20;;;;;;;2.92;2.25;;;;;;;20.70;100.00;97518.06;5091021;28;20922;-74
2023/07/06 09:06:51;;;;;;;6.25;2.33;;;;;;;20.81;100.00;97516.69;5086692;28;20417;-73
2023/07/06 09:09:18;;;;;;;3.10;1.90;;;;;;;20.96;100.00;97517.34;5088233;28;20759;-73
2023/07/06 09:11:46;;;;;;;3.53;2.17;;;;;;;21.07;100.00;97511.31;5091963;28;20408;-74
2023/07/06 09:14:16;;;;;;;1.77;1.60;;;;;;;21.19;100.00;97511.53;5091627;28;21191;-74
2023/07/06 09:16:48;;;;;;;3.05;1.95;;;;;;;21.31;100.00;97510.91;5084952;28;21077;-74
2023/07/06 09:19:17;;;;;;;3.78;2.30;;;;;;;21.39;100.00;97520.88;5081219;28;20409;-73
2023/07/06 09:21:47;;;;;;;3.05;1.98;;;;;;;21.39;100.00;97514.69;5089077;28;20429;-73
2023/07/06 09:24:14;;;;;;;6.87;2.43;;;;;;;21.33;100.00;97514.06;5081229;28;20938;-73
2023/07/06 09:26:44;;;;;;;3.58;1.83;;;;;;;21.26;100.00;97519.16;5086818;28;20417;-72
2023/07/06 09:29:21;;;;;;;5.05;2.20;;;;;;;21.14;100.00;97522.41;5089469;28;20401;-72
2023/07/06 09:31:49;;;;;;;3.53;2.08;;;;;;;20.94;100.00;97522.25;5086591;28;20390;-72
2023/07/06 09:34:26;;;;;;;2.70;2.00;;;;;;;20.79;100.00;97520.78;5080921;28;21010;-72
2023/07/06 09:36:52;;;;;;;2.50;1.70;;;;;;;20.68;100.00;97522.97;5083775;28;20433;-72
2023/07/06 09:39:18;;;;;;;2.22;1.80;;;;;;;20.67;100.00;97524.09;5086770;28;20479;-70
2023/07/06 09:41:45;;;;;;;2.80;1.98;;;;;;;20.85;100.00;97519.53;5089816;28;20409;-72
2023/07/06 09:44:15;;;;;;;2.35;1.75;;;;;;;21.14;100.00;97522.41;5082180;28;20408;-72
2023/07/06 09:46:43;;;;;;;3.92;2.10;;;;;;;21.49;100.00;97511.69;5081685;28;20421;-72
2023/07/06 09:49:17;;;;;;;3.55;2.13;;;;;;;21.79;100.00;97516.09;5089583;28;20765;-73
2023/07/06 09:51:50;;;;;;;5.00;2.40;;;;;;;22.08;100.00;97512.72;5073348;28;20446;-73
2023/07/06 09:54:21;;;;;;;3.72;1.90;;;;;;;22.37;100.00;97520.84;5088522;28;20929;-72
2023/07/06 09:56:48;;;;;;;2.33;2.00;;;;;;;22.63;100.00;97511.84;5079710;28;20526;-72
2023/07/06 09:59:15;;;;;;;2.35;1.90;;;;;;;22.88;100.00;97512.81;5081192;28;20461;-73
2023/07/06 10:01:53;;;;;;;2.28;1.77;;;;;;;23.07;100.00;97507.78;5084031;28;20479;-73
2023/07/06 10:04:48;;;;;;;3.40;2.00;;;;;;;23.25;100.00;97516.53;5088447;28;20432;-73
2023/07/06 10:07:25;;;;;;;3.92;2.55;;;;;;;23.25;100.00;97511.13;5087949;28;20394;-73
2023/07/06 10:10:08;;;;;;;6.00;2.90;;;;;;;23.31;100.00;97517.91;5086253;28;20883;-73
2023/07/06 10:12:38;;;;;;;3.97;2.05;;;;;;;23.23;100.00;97521.50;5082180;28;20409;-72
2023/07/06 10:15:12;;;;;;;4.30;2.15;;;;;;;22.85;100.00;97516.19;5089433;28;20450;-73
2023/07/06 10:17:42;;;;;;;3.95;2.33;;;;;;;22.61;100.00;97517.56;5090300;28;20652;-73
2023/07/06 10:20:18;;;;;;;2.40;1.88;;;;;;;22.38;100.00;97529.72;5093896;28;20400;-73
2023/07/06 10:23:04;;;;;;;4.85;2.38;;;;;;;22.15;100.00;97523.00;5088645;28;20969;-73
2023/07/06 10:25:34;;;;;;;3.88;2.38;;;;;;;21.96;100.00;97521.44;5086043;28;20968;-73
2023/07/06 10:28:07;;;;;;;4.03;2.63;;;;;;;21.75;100.00;97520.53;5089382;28;20733;-73
2023/07/06 10:30:46;;;;;;;4.72;2.10;;;;;;;21.58;100.00;97520.53;5082147;28;20402;-73
2023/07/06 10:33:18;;;;;;;2.70;1.90;;;;;;;21.50;100.00;97522.13;5089914;28;20487;-73
2023/07/06 10:35:50;;;;;;;3.05;2.10;;;;;;;21.46;100.00;97521.19;5089596;28;20473;-72
2023/07/06 10:38:17;;;;;;;3.13;1.98;;;;;;;21.49;100.00;97519.78;5085982;28;20937;-73
2023/07/06 10:40:50;;;;;;;1.80;1.60;;;;;;;21.71;100.00;97524.97;5077961;28;20401;-73
2023/07/06 10:43:23;;;;;;;4.07;2.50;;;;;;;21.84;100.00;97521.31;5080900;28;20417;-73
2023/07/06 10:45:51;;;;;;;3.90;1.98;;;;;;;22.03;100.00;97520.19;5089919;28;20881;-73
2023/07/06 10:48:28;;;;;;;2.38;1.92;;;;;;;22.35;100.00;97523.06;5089950;28;20895;-73
2023/07/06 10:51:20;;;;;;;2.97;1.83;;;;;;;22.78;100.00;97517.47;5086925;28;20411;-72
2023/07/06 10:54:02;;;;;;;2.97;1.87;;;;;;;23.14;100.00;97508.06;5086081;28;20405;-72
2023/07/06 10:56:30;;;;;;;3.55;2.40;;;;;;;23.46;100.00;97509.19;5089053;28;20741;-73
2023/07/06 10:58:59;;;;;;;2.40;2.00;;;;;;;23.65;100.00;97517.66;5087142;28;20492;-73
2023/07/06 11:01:32;;;;;;;2.40;1.80;;;;;;;23.93;100.00;97515.13;5088063;28;20883;-74
2023/07/06 11:04:00;;;;;;;3.72;2.40;;;;;;;24.14;100.00;97512.34;5085084;28;20999;-74
2023/07/06 11:06:54;;;;;;;2.25;1.80;;;;;;;24.49;100.00;97518.97;5089526;28;20409;-74
2023/07/06 11:09:21;;;;;;;1.83;1.63;;;;;;;24.62;100.00;97512.44;5089561;28;20452;-74
2023/07/06 11:12:18;;;;;;;2.93;2.00;;;;;;;24.52;100.00;97509.38;5083853;28;20407;-74
2023/07/06 11:14:46;;;;;;;2.25;1.88;;;;;;;24.58;100.00;97510.75;5084271;28;20409;-74
2023/07/06 11:17:28;;;;;;;4.50;2.60;;;;;;;24.58;94.77;97510.75;5086373;28;20762;-75
2023/07/06 11:19:59;;;;;;;3.65;2.05;;;;;;;24.41;74.50;97508.25;5089600;28;20409;-75
2023/07/06 11:22:27;;;;;;;2.92;1.92;;;;;;;24.03;90.69;97524.75;5089298;28;20405;-74
2023/07/06 11:24:59;;;;;;;4.47;2.10;;;;;;;23.75;100.00;97524.56;5089104;28;20455;-74
2023/07/06 11:27:31;;;;;;;2.17;1.83;;;;;;;23.46;100.00;97518.09;5085296;28;21202;-74
2023/07/06 11:30:09;;;;;;;3.83;1.83;;;;;;;23.29;100.00;97512.84;5089386;28;20398;-74
2023/07/06 11:32:42;;;;;;;2.15;1.63;;;;;;;23.14;100.00;97526.94;5086981;28;20456;-74
2023/07/06 11:35:24;;;;;;;2.03;1.40;;;;;;;22.95;100.00;97516.59;5088282;28;20421;-74
2023/07/06 11:38:05;;;;;;;5.25;2.10;;;;;;;22.82;100.00;97509.53;5078555;28;20524;-74